sensor_id;sensor_type;location;lat;lon;timestamp;P1;durP1;ratioP1;P2;durP2;ratioP2
27642;SDS011;15053;48.618;10.024;2023-01-24T00:01:27;34.30;;;17.08;;
27642;SDS011;15053;48.618;10.024;2023-01-24T00:03:53;39.97;;;19.10;;
27642;SDS011;15053;48.618;10.024;2023-01-24T00:06:20;37.10;;;17.50;;
27642;SDS011;15053;48.618;10.024;2023-01-24T00:08:47;35.63;;;17.08;;
27642;SDS011;15053;48.618;10.024;2023-01-24T00:11:14;39.92;;;15.95;;
27642;SDS011;15053;48.618;10.024;2023-01-24T00:13:40;29.80;;;15.85;;
27642;SDS011;15053;48.618;10.024;2023-01-24T00:18:35;34.92;;;16.02;;
27642;SDS011;15053;48.618;10.024;2023-01-24T00:21:06;39.42;;;18.10;;
27642;SDS011;15053;48.618;10.024;2023-01-24T00:23:52;35.33;;;17.45;;
27642;SDS011;15053;48.618;10.024;2023-01-24T00:26:20;35.60;;;16.38;;
27642;SDS011;15053;48.618;10.024;2023-01-24T00:28:50;41.55;;;19.65;;
27642;SDS011;15053;48.618;10.024;2023-01-24T00:31:17;37.70;;;17.05;;
27642;SDS011;15053;48.618;10.024;2023-01-24T00:33:45;36.60;;;17.75;;
27642;SDS011;15053;48.618;10.024;2023-01-24T00:36:12;37.17;;;16.45;;
27642;SDS011;15053;48.618;10.024;2023-01-24T00:38:38;36.05;;;16.88;;
27642;SDS011;15053;48.618;10.024;2023-01-24T00:41:05;34.03;;;16.27;;
27642;SDS011;15053;48.618;10.024;2023-01-24T00:43:31;38.90;;;17.77;;
27642;SDS011;15053;48.618;10.024;2023-01-24T00:45:58;34.95;;;16.63;;
27642;SDS011;15053;48.618;10.024;2023-01-24T00:48:25;32.55;;;16.50;;
27642;SDS011;15053;48.618;10.024;2023-01-24T00:50:52;36.63;;;17.02;;
27642;SDS011;15053;48.618;10.024;2023-01-24T00:53:18;35.53;;;15.90;;
27642;SDS011;15053;48.618;10.024;2023-01-24T00:55:46;34.00;;;16.52;;
27642;SDS011;15053;48.618;10.024;2023-01-24T00:58:13;36.70;;;16.25;;
27642;SDS011;15053;48.618;10.024;2023-01-24T01:00:40;34.42;;;16.60;;
27642;SDS011;15053;48.618;10.024;2023-01-24T01:03:09;36.63;;;16.98;;
27642;SDS011;15053;48.618;10.024;2023-01-24T01:05:41;38.25;;;16.83;;
27642;SDS011;15053;48.618;10.024;2023-01-24T01:08:08;38.83;;;18.58;;
27642;SDS011;15053;48.618;10.024;2023-01-24T01:10:36;37.10;;;16.27;;
27642;SDS011;15053;48.618;10.024;2023-01-24T01:13:03;40.10;;;16.52;;
27642;SDS011;15053;48.618;10.024;2023-01-24T01:15:32;35.33;;;16.48;;
27642;SDS011;15053;48.618;10.024;2023-01-24T01:17:59;40.58;;;17.83;;
27642;SDS011;15053;48.618;10.024;2023-01-24T01:20:26;37.13;;;16.48;;
27642;SDS011;15053;48.618;10.024;2023-01-24T01:22:55;35.25;;;16.67;;
27642;SDS011;15053;48.618;10.024;2023-01-24T01:25:22;36.83;;;16.63;;
27642;SDS011;15053;48.618;10.024;2023-01-24T01:27:49;34.30;;;15.40;;
27642;SDS011;15053;48.618;10.024;2023-01-24T01:30:15;34.50;;;16.13;;
27642;SDS011;15053;48.618;10.024;2023-01-24T01:32:42;38.90;;;16.23;;
27642;SDS011;15053;48.618;10.024;2023-01-24T01:35:09;37.70;;;17.73;;
27642;SDS011;15053;48.618;10.024;2023-01-24T01:37:36;36.25;;;16.90;;
27642;SDS011;15053;48.618;10.024;2023-01-24T01:40:02;29.73;;;15.57;;
27642;SDS011;15053;48.618;10.024;2023-01-24T01:42:40;34.45;;;16.33;;
27642;SDS011;15053;48.618;10.024;2023-01-24T01:45:38;33.22;;;15.55;;
27642;SDS011;15053;48.618;10.024;2023-01-24T01:48:49;33.80;;;16.02;;
27642;SDS011;15053;48.618;10.024;2023-01-24T01:51:03;37.05;;;17.35;;
27642;SDS011;15053;48.618;10.024;2023-01-24T01:53:33;35.22;;;15.60;;
27642;SDS011;15053;48.618;10.024;2023-01-24T01:56:16;37.17;;;16.52;;
27642;SDS011;15053;48.618;10.024;2023-01-24T01:58:56;35.08;;;16.58;;
27642;SDS011;15053;48.618;10.024;2023-01-24T02:03:57;37.47;;;16.17;;
27642;SDS011;15053;48.618;10.024;2023-01-24T02:09:22;35.75;;;15.70;;
27642;SDS011;15053;48.618;10.024;2023-01-24T02:11:52;38.13;;;15.93;;
27642;SDS011;15053;48.618;10.024;2023-01-24T02:14:22;36.65;;;16.70;;
27642;SDS011;15053;48.618;10.024;2023-01-24T02:17:09;36.22;;;16.08;;
27642;SDS011;15053;48.618;10.024;2023-01-24T02:22:17;35.35;;;17.02;;
27642;SDS011;15053;48.618;10.024;2023-01-24T02:25:13;34.28;;;16.70;;
27642;SDS011;15053;48.618;10.024;2023-01-24T02:27:42;40.00;;;16.92;;
27642;SDS011;15053;48.618;10.024;2023-01-24T02:30:09;42.38;;;18.55;;
27642;SDS011;15053;48.618;10.024;2023-01-24T02:32:36;37.08;;;17.70;;
27642;SDS011;15053;48.618;10.024;2023-01-24T02:35:03;42.08;;;18.00;;
27642;SDS011;15053;48.618;10.024;2023-01-24T02:37:30;37.67;;;17.27;;
27642;SDS011;15053;48.618;10.024;2023-01-24T02:40:01;36.00;;;16.77;;
27642;SDS011;15053;48.618;10.024;2023-01-24T02:42:33;40.72;;;17.60;;
27642;SDS011;15053;48.618;10.024;2023-01-24T02:45:08;41.25;;;18.40;;
27642;SDS011;15053;48.618;10.024;2023-01-24T02:47:40;40.13;;;17.70;;
27642;SDS011;15053;48.618;10.024;2023-01-24T02:50:10;41.20;;;17.15;;
27642;SDS011;15053;48.618;10.024;2023-01-24T02:52:37;42.55;;;17.83;;
27642;SDS011;15053;48.618;10.024;2023-01-24T02:55:22;41.00;;;18.20;;
27642;SDS011;15053;48.618;10.024;2023-01-24T02:57:49;36.72;;;16.33;;
27642;SDS011;15053;48.618;10.024;2023-01-24T03:00:38;43.75;;;19.45;;
27642;SDS011;15053;48.618;10.024;2023-01-24T03:03:06;41.33;;;18.67;;
27642;SDS011;15053;48.618;10.024;2023-01-24T03:05:34;44.00;;;19.67;;
27642;SDS011;15053;48.618;10.024;2023-01-24T03:08:20;40.47;;;17.85;;
27642;SDS011;15053;48.618;10.024;2023-01-24T03:10:51;40.57;;;17.70;;
27642;SDS011;15053;48.618;10.024;2023-01-24T03:13:18;42.25;;;19.52;;
27642;SDS011;15053;48.618;10.024;2023-01-24T03:16:04;45.45;;;19.80;;
27642;SDS011;15053;48.618;10.024;2023-01-24T03:18:50;44.45;;;18.38;;
27642;SDS011;15053;48.618;10.024;2023-01-24T03:21:36;41.83;;;18.23;;
27642;SDS011;15053;48.618;10.024;2023-01-24T03:24:21;41.75;;;17.55;;
27642;SDS011;15053;48.618;10.024;2023-01-24T03:27:09;47.97;;;18.67;;
27642;SDS011;15053;48.618;10.024;2023-01-24T03:29:55;49.50;;;19.02;;
27642;SDS011;15053;48.618;10.024;2023-01-24T03:32:40;43.35;;;17.67;;
27642;SDS011;15053;48.618;10.024;2023-01-24T03:35:25;44.92;;;18.75;;
27642;SDS011;15053;48.618;10.024;2023-01-24T03:37:52;43.72;;;18.90;;
27642;SDS011;15053;48.618;10.024;2023-01-24T03:40:38;45.85;;;19.77;;
27642;SDS011;15053;48.618;10.024;2023-01-24T03:43:05;46.83;;;19.52;;
27642;SDS011;15053;48.618;10.024;2023-01-24T03:45:36;38.88;;;17.25;;
27642;SDS011;15053;48.618;10.024;2023-01-24T03:48:08;39.90;;;17.90;;
27642;SDS011;15053;48.618;10.024;2023-01-24T03:50:42;39.60;;;17.90;;
27642;SDS011;15053;48.618;10.024;2023-01-24T03:53:33;41.72;;;19.23;;
27642;SDS011;15053;48.618;10.024;2023-01-24T03:56:00;40.70;;;19.05;;
27642;SDS011;15053;48.618;10.024;2023-01-24T03:58:33;45.45;;;18.52;;
27642;SDS011;15053;48.618;10.024;2023-01-24T04:01:04;37.88;;;17.85;;
27642;SDS011;15053;48.618;10.024;2023-01-24T04:04:03;40.65;;;17.15;;
27642;SDS011;15053;48.618;10.024;2023-01-24T04:06:30;42.78;;;19.27;;
27642;SDS011;15053;48.618;10.024;2023-01-24T04:08:57;42.08;;;18.40;;
27642;SDS011;15053;48.618;10.024;2023-01-24T04:11:24;48.88;;;20.52;;
27642;SDS011;15053;48.618;10.024;2023-01-24T04:14:00;43.70;;;19.02;;
27642;SDS011;15053;48.618;10.024;2023-01-24T04:16:27;44.55;;;18.15;;
27642;SDS011;15053;48.618;10.024;2023-01-24T04:19:05;46.72;;;19.85;;
27642;SDS011;15053;48.618;10.024;2023-01-24T04:21:32;40.15;;;17.75;;
27642;SDS011;15053;48.618;10.024;2023-01-24T04:23:58;47.70;;;19.10;;
27642;SDS011;15053;48.618;10.024;2023-01-24T04:26:26;49.70;;;20.45;;
27642;SDS011;15053;48.618;10.024;2023-01-24T04:28:54;44.88;;;18.75;;
27642;SDS011;15053;48.618;10.024;2023-01-24T04:31:20;40.05;;;18.92;;
27642;SDS011;15053;48.618;10.024;2023-01-24T04:34:10;45.30;;;18.88;;
27642;SDS011;15053;48.618;10.024;2023-01-24T04:36:38;42.70;;;18.83;;
27642;SDS011;15053;48.618;10.024;2023-01-24T04:39:05;51.55;;;19.70;;
27642;SDS011;15053;48.618;10.024;2023-01-24T04:41:40;46.85;;;20.73;;
27642;SDS011;15053;48.618;10.024;2023-01-24T04:44:06;43.72;;;18.58;;
27642;SDS011;15053;48.618;10.024;2023-01-24T04:46:33;42.15;;;19.25;;
27642;SDS011;15053;48.618;10.024;2023-01-24T04:48:59;46.85;;;20.13;;
27642;SDS011;15053;48.618;10.024;2023-01-24T04:51:34;39.88;;;16.40;;
27642;SDS011;15053;48.618;10.024;2023-01-24T04:54:03;38.95;;;16.65;;
27642;SDS011;15053;48.618;10.024;2023-01-24T04:56:30;40.45;;;17.60;;
27642;SDS011;15053;48.618;10.024;2023-01-24T04:58:57;40.25;;;19.67;;
27642;SDS011;15053;48.618;10.024;2023-01-24T05:01:24;40.22;;;17.52;;
27642;SDS011;15053;48.618;10.024;2023-01-24T05:04:00;45.80;;;18.35;;
27642;SDS011;15053;48.618;10.024;2023-01-24T05:06:29;44.90;;;17.98;;
27642;SDS011;15053;48.618;10.024;2023-01-24T05:08:57;39.70;;;17.13;;
27642;SDS011;15053;48.618;10.024;2023-01-24T05:11:32;44.63;;;20.25;;
27642;SDS011;15053;48.618;10.024;2023-01-24T05:14:02;42.28;;;18.83;;
27642;SDS011;15053;48.618;10.024;2023-01-24T05:16:29;44.40;;;18.77;;
27642;SDS011;15053;48.618;10.024;2023-01-24T05:18:56;46.30;;;19.45;;
27642;SDS011;15053;48.618;10.024;2023-01-24T05:21:24;39.67;;;16.90;;
27642;SDS011;15053;48.618;10.024;2023-01-24T05:23:51;41.70;;;18.45;;
27642;SDS011;15053;48.618;10.024;2023-01-24T05:26:20;40.45;;;17.90;;
27642;SDS011;15053;48.618;10.024;2023-01-24T05:28:49;42.13;;;18.48;;
27642;SDS011;15053;48.618;10.024;2023-01-24T05:31:17;38.65;;;18.35;;
27642;SDS011;15053;48.618;10.024;2023-01-24T05:33:44;35.95;;;17.02;;
27642;SDS011;15053;48.618;10.024;2023-01-24T05:36:12;38.53;;;16.85;;
27642;SDS011;15053;48.618;10.024;2023-01-24T05:38:42;41.53;;;18.80;;
27642;SDS011;15053;48.618;10.024;2023-01-24T05:41:11;40.58;;;17.77;;
27642;SDS011;15053;48.618;10.024;2023-01-24T05:43:39;38.10;;;16.25;;
27642;SDS011;15053;48.618;10.024;2023-01-24T05:46:06;40.78;;;16.92;;
27642;SDS011;15053;48.618;10.024;2023-01-24T05:48:42;38.85;;;17.17;;
27642;SDS011;15053;48.618;10.024;2023-01-24T05:51:11;40.50;;;17.85;;
27642;SDS011;15053;48.618;10.024;2023-01-24T05:53:39;37.30;;;17.48;;
27642;SDS011;15053;48.618;10.024;2023-01-24T05:56:11;33.15;;;16.63;;
27642;SDS011;15053;48.618;10.024;2023-01-24T05:58:39;37.10;;;16.60;;
27642;SDS011;15053;48.618;10.024;2023-01-24T06:01:10;38.20;;;17.70;;
27642;SDS011;15053;48.618;10.024;2023-01-24T06:03:43;40.33;;;17.55;;
27642;SDS011;15053;48.618;10.024;2023-01-24T06:06:11;31.67;;;15.15;;
27642;SDS011;15053;48.618;10.024;2023-01-24T06:08:39;31.00;;;16.73;;
27642;SDS011;15053;48.618;10.024;2023-01-24T06:11:09;37.85;;;16.85;;
27642;SDS011;15053;48.618;10.024;2023-01-24T06:16:05;31.65;;;15.52;;
27642;SDS011;15053;48.618;10.024;2023-01-24T06:18:35;42.30;;;18.20;;
27642;SDS011;15053;48.618;10.024;2023-01-24T06:21:06;39.20;;;17.30;;
27642;SDS011;15053;48.618;10.024;2023-01-24T06:23:34;40.38;;;19.15;;
27642;SDS011;15053;48.618;10.024;2023-01-24T06:26:03;38.80;;;17.40;;
27642;SDS011;15053;48.618;10.024;2023-01-24T06:28:30;35.15;;;16.60;;
27642;SDS011;15053;48.618;10.024;2023-01-24T06:31:02;39.72;;;18.48;;
27642;SDS011;15053;48.618;10.024;2023-01-24T06:36:37;42.25;;;18.40;;
27642;SDS011;15053;48.618;10.024;2023-01-24T06:39:12;42.72;;;16.17;;
27642;SDS011;15053;48.618;10.024;2023-01-24T06:41:41;33.20;;;17.52;;
27642;SDS011;15053;48.618;10.024;2023-01-24T06:44:11;38.67;;;17.67;;
27642;SDS011;15053;48.618;10.024;2023-01-24T06:46:38;35.63;;;16.08;;
27642;SDS011;15053;48.618;10.024;2023-01-24T06:49:05;35.92;;;17.40;;
27642;SDS011;15053;48.618;10.024;2023-01-24T06:51:32;37.58;;;15.48;;
27642;SDS011;15053;48.618;10.024;2023-01-24T06:53:58;35.75;;;16.58;;
27642;SDS011;15053;48.618;10.024;2023-01-24T06:56:29;31.27;;;15.40;;
27642;SDS011;15053;48.618;10.024;2023-01-24T06:58:55;33.55;;;15.95;;
27642;SDS011;15053;48.618;10.024;2023-01-24T07:01:22;37.70;;;14.85;;
27642;SDS011;15053;48.618;10.024;2023-01-24T07:03:48;32.58;;;16.50;;
27642;SDS011;15053;48.618;10.024;2023-01-24T07:06:15;31.40;;;14.70;;
27642;SDS011;15053;48.618;10.024;2023-01-24T07:08:41;33.58;;;15.05;;
27642;SDS011;15053;48.618;10.024;2023-01-24T07:11:08;32.42;;;16.80;;
27642;SDS011;15053;48.618;10.024;2023-01-24T07:13:34;27.38;;;15.32;;
27642;SDS011;15053;48.618;10.024;2023-01-24T07:16:01;34.88;;;17.55;;
27642;SDS011;15053;48.618;10.024;2023-01-24T07:18:28;37.17;;;16.90;;
27642;SDS011;15053;48.618;10.024;2023-01-24T07:20:54;34.42;;;17.58;;
27642;SDS011;15053;48.618;10.024;2023-01-24T07:23:22;33.60;;;15.85;;
27642;SDS011;15053;48.618;10.024;2023-01-24T07:25:50;32.90;;;16.17;;
27642;SDS011;15053;48.618;10.024;2023-01-24T07:28:18;30.67;;;15.55;;
27642;SDS011;15053;48.618;10.024;2023-01-24T07:30:44;31.75;;;16.27;;
27642;SDS011;15053;48.618;10.024;2023-01-24T07:33:12;29.10;;;15.88;;
27642;SDS011;15053;48.618;10.024;2023-01-24T07:35:40;37.13;;;16.77;;
27642;SDS011;15053;48.618;10.024;2023-01-24T07:38:07;50.90;;;24.35;;
27642;SDS011;15053;48.618;10.024;2023-01-24T07:40:35;63.35;;;27.85;;
27642;SDS011;15053;48.618;10.024;2023-01-24T07:43:02;49.95;;;23.23;;
27642;SDS011;15053;48.618;10.024;2023-01-24T07:45:29;42.55;;;20.58;;
27642;SDS011;15053;48.618;10.024;2023-01-24T07:47:57;42.42;;;19.30;;
27642;SDS011;15053;48.618;10.024;2023-01-24T07:50:25;40.15;;;19.83;;
27642;SDS011;15053;48.618;10.024;2023-01-24T07:52:54;31.58;;;16.50;;
27642;SDS011;15053;48.618;10.024;2023-01-24T07:55:22;34.03;;;17.50;;
27642;SDS011;15053;48.618;10.024;2023-01-24T07:57:49;33.78;;;16.73;;
27642;SDS011;15053;48.618;10.024;2023-01-24T08:00:15;34.72;;;17.55;;
27642;SDS011;15053;48.618;10.024;2023-01-24T08:02:43;28.58;;;14.68;;
27642;SDS011;15053;48.618;10.024;2023-01-24T08:05:10;29.75;;;15.63;;
27642;SDS011;15053;48.618;10.024;2023-01-24T08:07:37;35.00;;;16.73;;
27642;SDS011;15053;48.618;10.024;2023-01-24T08:10:04;35.25;;;16.73;;
27642;SDS011;15053;48.618;10.024;2023-01-24T08:12:30;29.77;;;15.52;;
27642;SDS011;15053;48.618;10.024;2023-01-24T08:14:57;35.92;;;15.63;;
27642;SDS011;15053;48.618;10.024;2023-01-24T08:17:23;30.40;;;16.52;;
27642;SDS011;15053;48.618;10.024;2023-01-24T08:19:50;34.22;;;16.95;;
27642;SDS011;15053;48.618;10.024;2023-01-24T08:22:25;32.80;;;16.52;;
27642;SDS011;15053;48.618;10.024;2023-01-24T08:24:52;31.48;;;15.05;;
27642;SDS011;15053;48.618;10.024;2023-01-24T08:27:19;30.92;;;16.00;;
27642;SDS011;15053;48.618;10.024;2023-01-24T08:29:45;33.83;;;17.23;;
27642;SDS011;15053;48.618;10.024;2023-01-24T08:32:12;32.42;;;16.40;;
27642;SDS011;15053;48.618;10.024;2023-01-24T08:34:38;30.98;;;15.90;;
27642;SDS011;15053;48.618;10.024;2023-01-24T08:37:05;36.78;;;16.80;;
27642;SDS011;15053;48.618;10.024;2023-01-24T08:39:31;36.67;;;17.45;;
27642;SDS011;15053;48.618;10.024;2023-01-24T08:41:57;30.77;;;15.57;;
27642;SDS011;15053;48.618;10.024;2023-01-24T08:44:24;37.10;;;17.90;;
27642;SDS011;15053;48.618;10.024;2023-01-24T08:46:50;34.55;;;17.25;;
27642;SDS011;15053;48.618;10.024;2023-01-24T08:49:17;44.17;;;21.75;;
27642;SDS011;15053;48.618;10.024;2023-01-24T08:51:43;49.38;;;22.38;;
27642;SDS011;15053;48.618;10.024;2023-01-24T08:54:11;47.70;;;20.63;;
27642;SDS011;15053;48.618;10.024;2023-01-24T08:56:37;47.72;;;21.95;;
27642;SDS011;15053;48.618;10.024;2023-01-24T08:59:04;34.63;;;16.85;;
27642;SDS011;15053;48.618;10.024;2023-01-24T09:01:30;32.28;;;16.50;;
27642;SDS011;15053;48.618;10.024;2023-01-24T09:03:59;28.10;;;15.05;;
27642;SDS011;15053;48.618;10.024;2023-01-24T09:06:25;37.47;;;18.15;;
27642;SDS011;15053;48.618;10.024;2023-01-24T09:08:52;31.38;;;16.95;;
27642;SDS011;15053;48.618;10.024;2023-01-24T09:11:21;38.15;;;17.88;;
27642;SDS011;15053;48.618;10.024;2023-01-24T09:13:48;47.75;;;20.75;;
27642;SDS011;15053;48.618;10.024;2023-01-24T09:16:14;51.78;;;22.13;;
27642;SDS011;15053;48.618;10.024;2023-01-24T09:18:41;45.03;;;20.58;;
27642;SDS011;15053;48.618;10.024;2023-01-24T09:21:08;47.78;;;22.88;;
27642;SDS011;15053;48.618;10.024;2023-01-24T09:23:34;46.17;;;22.35;;
27642;SDS011;15053;48.618;10.024;2023-01-24T09:26:01;34.40;;;17.27;;
27642;SDS011;15053;48.618;10.024;2023-01-24T09:28:27;30.92;;;14.25;;
27642;SDS011;15053;48.618;10.024;2023-01-24T09:30:54;33.55;;;15.10;;
27642;SDS011;15053;48.618;10.024;2023-01-24T09:33:20;30.13;;;14.57;;
27642;SDS011;15053;48.618;10.024;2023-01-24T09:35:58;37.17;;;16.45;;
27642;SDS011;15053;48.618;10.024;2023-01-24T09:38:26;29.92;;;15.85;;
27642;SDS011;15053;48.618;10.024;2023-01-24T09:44:00;31.67;;;15.68;;
27642;SDS011;15053;48.618;10.024;2023-01-24T09:46:36;27.25;;;14.60;;
27642;SDS011;15053;48.618;10.024;2023-01-24T09:51:59;25.35;;;12.95;;
27642;SDS011;15053;48.618;10.024;2023-01-24T09:57:25;31.38;;;13.50;;
27642;SDS011;15053;48.618;10.024;2023-01-24T10:00:04;24.88;;;12.63;;
27642;SDS011;15053;48.618;10.024;2023-01-24T10:02:41;29.20;;;15.20;;
27642;SDS011;15053;48.618;10.024;2023-01-24T10:05:15;26.60;;;14.00;;
27642;SDS011;15053;48.618;10.024;2023-01-24T10:16:18;23.80;;;12.75;;
27642;SDS011;15053;48.618;10.024;2023-01-24T10:19:00;26.63;;;13.02;;
27642;SDS011;15053;48.618;10.024;2023-01-24T10:21:38;22.77;;;12.40;;
27642;SDS011;15053;48.618;10.024;2023-01-24T10:24:37;29.38;;;13.05;;
27642;SDS011;15053;48.618;10.024;2023-01-24T10:27:18;31.47;;;15.13;;
27642;SDS011;15053;48.618;10.024;2023-01-24T10:29:55;20.35;;;11.18;;
27642;SDS011;15053;48.618;10.024;2023-01-24T10:32:30;22.77;;;11.43;;
27642;SDS011;15053;48.618;10.024;2023-01-24T10:35:14;22.13;;;11.95;;
27642;SDS011;15053;48.618;10.024;2023-01-24T10:37:47;21.63;;;12.93;;
27642;SDS011;15053;48.618;10.024;2023-01-24T10:40:22;26.05;;;13.43;;
27642;SDS011;15053;48.618;10.024;2023-01-24T10:42:52;22.65;;;12.93;;
27642;SDS011;15053;48.618;10.024;2023-01-24T10:45:27;23.52;;;12.63;;
27642;SDS011;15053;48.618;10.024;2023-01-24T10:48:18;27.67;;;13.00;;
27642;SDS011;15053;48.618;10.024;2023-01-24T10:51:12;27.73;;;14.23;;
27642;SDS011;15053;48.618;10.024;2023-01-24T10:53:47;32.05;;;14.45;;
27642;SDS011;15053;48.618;10.024;2023-01-24T10:56:15;21.88;;;11.45;;
27642;SDS011;15053;48.618;10.024;2023-01-24T10:59:03;21.75;;;12.05;;
27642;SDS011;15053;48.618;10.024;2023-01-24T11:01:39;21.08;;;11.43;;
27642;SDS011;15053;48.618;10.024;2023-01-24T11:04:19;20.02;;;11.32;;
27642;SDS011;15053;48.618;10.024;2023-01-24T11:06:48;19.90;;;11.93;;
27642;SDS011;15053;48.618;10.024;2023-01-24T11:09:16;19.88;;;11.45;;
27642;SDS011;15053;48.618;10.024;2023-01-24T11:11:52;21.30;;;11.95;;
27642;SDS011;15053;48.618;10.024;2023-01-24T11:16:55;23.83;;;12.05;;
27642;SDS011;15053;48.618;10.024;2023-01-24T11:19:31;22.13;;;11.50;;
27642;SDS011;15053;48.618;10.024;2023-01-24T11:22:00;19.95;;;9.63;;
27642;SDS011;15053;48.618;10.024;2023-01-24T11:24:29;22.73;;;11.50;;
27642;SDS011;15053;48.618;10.024;2023-01-24T11:29:28;20.05;;;11.48;;
27642;SDS011;15053;48.618;10.024;2023-01-24T11:31:56;22.50;;;11.85;;
27642;SDS011;15053;48.618;10.024;2023-01-24T11:34:48;24.20;;;11.23;;
27642;SDS011;15053;48.618;10.024;2023-01-24T11:43:12;22.90;;;12.15;;
27642;SDS011;15053;48.618;10.024;2023-01-24T11:48:52;21.08;;;11.68;;
27642;SDS011;15053;48.618;10.024;2023-01-24T11:57:02;20.55;;;11.88;;
27642;SDS011;15053;48.618;10.024;2023-01-24T12:10:28;22.70;;;11.63;;
27642;SDS011;15053;48.618;10.024;2023-01-24T12:16:23;25.27;;;12.75;;
27642;SDS011;15053;48.618;10.024;2023-01-24T12:19:20;21.50;;;12.23;;
27642;SDS011;15053;48.618;10.024;2023-01-24T12:21:59;20.95;;;10.90;;
27642;SDS011;15053;48.618;10.024;2023-01-24T12:24:30;20.65;;;11.68;;
27642;SDS011;15053;48.618;10.024;2023-01-24T12:26:59;22.85;;;12.55;;
27642;SDS011;15053;48.618;10.024;2023-01-24T12:29:38;18.05;;;9.80;;
27642;SDS011;15053;48.618;10.024;2023-01-24T12:32:21;22.65;;;10.60;;
27642;SDS011;15053;48.618;10.024;2023-01-24T12:34:51;20.67;;;11.07;;
27642;SDS011;15053;48.618;10.024;2023-01-24T12:37:34;20.17;;;11.32;;
27642;SDS011;15053;48.618;10.024;2023-01-24T12:42:57;25.58;;;11.68;;
27642;SDS011;15053;48.618;10.024;2023-01-24T12:45:41;19.02;;;11.40;;
27642;SDS011;15053;48.618;10.024;2023-01-24T12:48:15;19.58;;;10.73;;
27642;SDS011;15053;48.618;10.024;2023-01-24T12:53:51;21.48;;;11.18;;
27642;SDS011;15053;48.618;10.024;2023-01-24T12:56:26;26.50;;;11.55;;
27642;SDS011;15053;48.618;10.024;2023-01-24T12:58:57;22.55;;;12.25;;
27642;SDS011;15053;48.618;10.024;2023-01-24T13:12:20;22.40;;;12.57;;
27642;SDS011;15053;48.618;10.024;2023-01-24T13:14:53;22.73;;;12.20;;
27642;SDS011;15053;48.618;10.024;2023-01-24T13:17:43;24.45;;;12.02;;
27642;SDS011;15053;48.618;10.024;2023-01-24T13:20:31;23.02;;;12.32;;
27642;SDS011;15053;48.618;10.024;2023-01-24T13:31:49;25.70;;;13.60;;
27642;SDS011;15053;48.618;10.024;2023-01-24T13:34:24;25.60;;;13.77;;
27642;SDS011;15053;48.618;10.024;2023-01-24T13:36:58;26.35;;;15.07;;
27642;SDS011;15053;48.618;10.024;2023-01-24T13:39:36;26.73;;;14.20;;
27642;SDS011;15053;48.618;10.024;2023-01-24T13:42:23;25.42;;;14.23;;
27642;SDS011;15053;48.618;10.024;2023-01-24T13:47:57;25.08;;;13.35;;
27642;SDS011;15053;48.618;10.024;2023-01-24T13:50:25;24.30;;;13.13;;
27642;SDS011;15053;48.618;10.024;2023-01-24T13:52:53;28.13;;;13.32;;
27642;SDS011;15053;48.618;10.024;2023-01-24T13:57:49;26.80;;;14.43;;
27642;SDS011;15053;48.618;10.024;2023-01-24T14:03:20;21.92;;;12.63;;
27642;SDS011;15053;48.618;10.024;2023-01-24T14:05:51;26.60;;;14.55;;
27642;SDS011;15053;48.618;10.024;2023-01-24T14:10:47;23.42;;;14.73;;
27642;SDS011;15053;48.618;10.024;2023-01-24T14:16:09;29.35;;;13.23;;
27642;SDS011;15053;48.618;10.024;2023-01-24T14:21:51;24.48;;;13.52;;
27642;SDS011;15053;48.618;10.024;2023-01-24T14:24:29;28.75;;;12.45;;
27642;SDS011;15053;48.618;10.024;2023-01-24T14:26:58;26.65;;;13.70;;
27642;SDS011;15053;48.618;10.024;2023-01-24T14:29:35;22.70;;;13.07;;
27642;SDS011;15053;48.618;10.024;2023-01-24T14:32:04;29.27;;;14.65;;
27642;SDS011;15053;48.618;10.024;2023-01-24T14:35:08;29.38;;;14.60;;
27642;SDS011;15053;48.618;10.024;2023-01-24T14:37:44;23.90;;;13.30;;
27642;SDS011;15053;48.618;10.024;2023-01-24T14:40:18;30.40;;;15.68;;
27642;SDS011;15053;48.618;10.024;2023-01-24T14:42:47;29.42;;;14.35;;
27642;SDS011;15053;48.618;10.024;2023-01-24T14:45:16;25.95;;;14.82;;
27642;SDS011;15053;48.618;10.024;2023-01-24T14:47:46;25.92;;;14.43;;
27642;SDS011;15053;48.618;10.024;2023-01-24T14:52:50;26.00;;;13.70;;
27642;SDS011;15053;48.618;10.024;2023-01-24T14:57:43;30.27;;;14.95;;
27642;SDS011;15053;48.618;10.024;2023-01-24T15:02:37;30.67;;;15.80;;
27642;SDS011;15053;48.618;10.024;2023-01-24T15:08:02;29.80;;;15.65;;
27642;SDS011;15053;48.618;10.024;2023-01-24T15:10:35;32.65;;;15.60;;
27642;SDS011;15053;48.618;10.024;2023-01-24T15:13:05;28.75;;;14.75;;
27642;SDS011;15053;48.618;10.024;2023-01-24T15:15:34;29.95;;;15.48;;
27642;SDS011;15053;48.618;10.024;2023-01-24T15:18:03;32.38;;;16.50;;
27642;SDS011;15053;48.618;10.024;2023-01-24T15:20:33;30.73;;;15.70;;
27642;SDS011;15053;48.618;10.024;2023-01-24T15:23:00;38.10;;;17.65;;
27642;SDS011;15053;48.618;10.024;2023-01-24T15:25:35;37.78;;;18.20;;
27642;SDS011;15053;48.618;10.024;2023-01-24T15:28:10;33.90;;;16.83;;
27642;SDS011;15053;48.618;10.024;2023-01-24T15:30:49;36.75;;;18.02;;
27642;SDS011;15053;48.618;10.024;2023-01-24T15:35:45;32.70;;;16.73;;
27642;SDS011;15053;48.618;10.024;2023-01-24T15:46:52;29.83;;;15.13;;
27642;SDS011;15053;48.618;10.024;2023-01-24T15:54:30;37.45;;;19.10;;
27642;SDS011;15053;48.618;10.024;2023-01-24T15:56:57;32.00;;;17.05;;
27642;SDS011;15053;48.618;10.024;2023-01-24T15:59:27;29.80;;;15.65;;
27642;SDS011;15053;48.618;10.024;2023-01-24T16:01:54;30.98;;;15.68;;
27642;SDS011;15053;48.618;10.024;2023-01-24T16:04:21;30.85;;;16.80;;
27642;SDS011;15053;48.618;10.024;2023-01-24T16:06:48;32.28;;;15.85;;
27642;SDS011;15053;48.618;10.024;2023-01-24T16:09:15;32.88;;;17.38;;
27642;SDS011;15053;48.618;10.024;2023-01-24T16:11:43;36.70;;;17.35;;
27642;SDS011;15053;48.618;10.024;2023-01-24T16:14:21;34.60;;;18.35;;
27642;SDS011;15053;48.618;10.024;2023-01-24T16:16:50;30.00;;;15.20;;
27642;SDS011;15053;48.618;10.024;2023-01-24T16:19:20;33.58;;;15.68;;
27642;SDS011;15053;48.618;10.024;2023-01-24T16:21:48;31.90;;;16.70;;
27642;SDS011;15053;48.618;10.024;2023-01-24T16:24:14;31.95;;;16.05;;
27642;SDS011;15053;48.618;10.024;2023-01-24T16:26:43;38.72;;;18.38;;
27642;SDS011;15053;48.618;10.024;2023-01-24T16:29:13;35.85;;;17.60;;
27642;SDS011;15053;48.618;10.024;2023-01-24T16:31:42;35.38;;;17.10;;
27642;SDS011;15053;48.618;10.024;2023-01-24T16:34:08;34.78;;;16.90;;
27642;SDS011;15053;48.618;10.024;2023-01-24T16:36:35;39.38;;;18.50;;
27642;SDS011;15053;48.618;10.024;2023-01-24T16:39:02;36.90;;;18.73;;
27642;SDS011;15053;48.618;10.024;2023-01-24T16:41:29;38.97;;;17.75;;
27642;SDS011;15053;48.618;10.024;2023-01-24T16:43:56;41.90;;;20.58;;
27642;SDS011;15053;48.618;10.024;2023-01-24T16:46:23;55.75;;;23.88;;
27642;SDS011;15053;48.618;10.024;2023-01-24T16:48:50;66.50;;;29.10;;